createdAt,value
2023-04-11T00:03:12.778Z,100669.03
2023-04-11T00:07:14.452Z,100665.38
2023-04-11T00:11:16.080Z,100661.38
2023-04-11T00:15:20.013Z,100651.84
2023-04-11T00:19:25.435Z,100647.97
2023-04-11T00:23:26.852Z,100639.16
2023-04-11T00:27:28.922Z,100642.16
2023-04-11T00:31:30.496Z,100627.50
2023-04-11T00:35:34.657Z,100605.34
2023-04-11T00:39:38.249Z,100601.56
2023-04-11T00:43:39.712Z,100598.28
2023-04-11T00:47:41.905Z,100597.84
2023-04-11T00:51:43.551Z,100591.13
2023-04-11T00:55:45.615Z,100593.06
2023-04-11T00:59:51.402Z,100581.78
2023-04-11T01:03:53.762Z,100580.19
2023-04-11T01:07:56.142Z,100576.19
2023-04-11T01:11:58.932Z,100576.06
2023-04-11T01:16:00.836Z,100553.88
2023-04-11T01:20:02.420Z,100541.59
2023-04-11T01:24:04.270Z,100516.69
2023-04-11T01:28:08.706Z,100517.13
2023-04-11T01:32:10.267Z,100516.03
2023-04-11T01:36:12.688Z,100499.97
2023-04-11T01:40:18.608Z,100498.28
2023-04-11T01:44:20.898Z,100488.16
2023-04-11T01:48:22.621Z,100481.59
2023-04-11T01:52:24.106Z,100465.19
2023-04-11T01:56:25.585Z,100461.09
2023-04-11T02:00:29.853Z,100459.63
2023-04-11T02:04:31.258Z,100451.03
2023-04-11T02:08:32.768Z,100449.13
2023-04-11T02:12:34.225Z,100438.56
2023-04-11T02:16:50.645Z,100427.44
2023-04-11T02:20:52.689Z,100426.91
2023-04-11T02:24:54.152Z,100415.50
2023-04-11T02:28:55.971Z,100406.97
2023-04-11T02:32:57.634Z,100405.38
2023-04-11T02:36:59.084Z,100387.66
2023-04-11T02:41:00.585Z,100397.13
2023-04-11T02:45:02.494Z,100389.78
2023-04-11T02:49:04.717Z,100377.47
2023-04-11T02:53:07.139Z,100377.97
2023-04-11T02:57:08.560Z,100374.66
2023-04-11T03:01:11.876Z,100377.34
2023-04-11T03:05:13.369Z,100372.72
2023-04-11T03:09:15.143Z,100375.50
2023-04-11T03:13:16.606Z,100363.03
2023-04-11T03:17:18.313Z,100344.16
2023-04-11T03:21:19.855Z,100346.09
2023-04-11T03:25:21.459Z,100346.34
2023-04-11T03:29:22.892Z,100346.88
2023-04-11T03:33:24.396Z,100348.56
2023-04-11T03:37:25.960Z,100347.72
2023-04-11T03:41:27.939Z,100346.75
2023-04-11T03:45:29.329Z,100342.97
2023-04-11T03:49:30.782Z,100334.13
2023-04-11T03:53:32.208Z,100328.69
2023-04-11T03:57:33.597Z,100333.78
2023-04-11T04:01:37.901Z,100323.78
2023-04-11T04:05:42.377Z,100319.50
2023-04-11T04:09:43.859Z,100319.38
2023-04-11T04:13:45.293Z,100309.13
2023-04-11T04:17:46.725Z,100321.06
2023-04-11T04:21:48.249Z,100314.34
2023-04-11T04:25:50.995Z,100332.94
2023-04-11T04:30:01.588Z,100339.22
2023-04-11T04:34:10.287Z,100326.69
2023-04-11T04:38:17.559Z,100321.09
2023-04-11T04:42:26.296Z,100308.72
2023-04-11T04:46:31.443Z,100317.28
2023-04-11T04:50:32.882Z,100298.41
2023-04-11T04:54:34.541Z,100304.91
2023-04-11T04:58:36.008Z,100295.47
2023-04-11T05:02:38.026Z,100299.19
2023-04-11T05:06:39.541Z,100306.84
2023-04-11T05:10:41.296Z,100300.38
2023-04-11T05:14:42.965Z,100297.59
2023-04-11T05:18:45.275Z,100274.44
2023-04-11T05:22:48.772Z,100279.69
2023-04-11T05:26:50.319Z,100292.25
2023-04-11T05:30:51.815Z,100291.34
2023-04-11T05:34:58.423Z,100301.25
2023-04-11T05:39:00.983Z,100291.44
2023-04-11T05:43:03.150Z,100293.16
2023-04-11T05:47:04.616Z,100289.31
2023-04-11T05:51:07.037Z,100322.88
2023-04-11T05:55:09.892Z,100320.84
2023-04-11T05:59:11.331Z,100328.31
2023-04-11T06:03:13.179Z,100322.97
2023-04-11T06:07:14.923Z,100324.41
2023-04-11T06:11:16.444Z,100330.47
2023-04-11T06:15:18.069Z,100335.00
2023-04-11T06:19:19.508Z,100316.31
2023-04-11T06:23:21.270Z,100307.13
2023-04-11T06:27:22.856Z,100309.34
2023-04-11T06:31:24.330Z,100312.50
2023-04-11T06:35:25.758Z,100307.66
2023-04-11T06:39:27.171Z,100299.91
2023-04-11T06:43:28.635Z,100311.50
2023-04-11T06:47:30.199Z,100314.00
2023-04-11T06:51:31.790Z,100315.25
2023-04-11T06:55:33.282Z,100323.34
2023-04-11T06:59:34.896Z,100324.50
2023-04-11T07:03:36.969Z,100327.19
2023-04-11T07:07:38.639Z,100335.91
2023-04-11T07:11:40.607Z,100332.34
2023-04-11T07:15:42.070Z,100330.31
2023-04-11T07:19:43.515Z,100326.81
2023-04-11T07:23:45.282Z,100339.13
2023-04-11T07:27:46.699Z,100337.22
2023-04-11T07:31:48.281Z,100348.13
2023-04-11T07:35:50.066Z,100330.81
2023-04-11T07:39:52.019Z,100326.13
2023-04-11T07:43:53.734Z,100324.66
2023-04-11T07:47:55.591Z,100322.13
2023-04-11T07:51:57.117Z,100326.03
2023-04-11T07:55:58.588Z,100324.94
2023-04-11T08:00:00.175Z,100325.09
2023-04-11T08:04:02.152Z,100329.03
2023-04-11T08:08:04.813Z,100340.06
2023-04-11T08:12:06.461Z,100338.47
2023-04-11T08:16:11.045Z,100335.41
2023-04-11T08:20:13.820Z,100335.41
2023-04-11T08:24:15.298Z,100350.84
2023-04-11T08:28:16.913Z,100355.97
2023-04-11T08:32:18.836Z,100373.81
2023-04-11T08:36:20.448Z,100351.16
2023-04-11T08:40:21.975Z,100349.09
2023-04-11T08:44:23.402Z,100344.28
2023-04-11T08:48:26.390Z,100340.00
2023-04-11T08:52:28.826Z,100348.31
2023-04-11T08:56:30.426Z,100346.72
2023-04-11T09:00:32.517Z,100348.63
2023-04-11T09:04:41.269Z,100368.28
2023-04-11T09:08:42.742Z,100362.28
2023-04-11T09:12:44.938Z,100354.03
2023-04-11T09:17:00.398Z,100347.78
2023-04-11T09:21:04.659Z,100357.91
2023-04-11T09:25:06.495Z,100347.41
2023-04-11T09:29:08.034Z,100347.34
2023-04-11T09:33:28.331Z,100342.19
2023-04-11T09:37:41.295Z,100336.53
2023-04-11T09:41:42.853Z,100333.63
2023-04-11T09:45:54.143Z,100340.97
2023-04-11T09:49:56.487Z,100335.84
2023-04-11T09:54:01.810Z,100342.78
2023-04-11T09:58:05.638Z,100345.78
2023-04-11T10:02:08.390Z,100365.38
2023-04-11T10:06:16.389Z,100347.34
2023-04-11T10:10:23.287Z,100335.84
2023-04-11T10:14:45.221Z,100337.34
2023-04-11T10:18:56.069Z,100339.50
2023-04-11T10:22:59.056Z,100315.22
2023-04-11T10:27:03.744Z,100325.53
2023-04-11T10:31:10.125Z,100315.25
2023-04-11T10:35:17.878Z,100320.66
2023-04-11T10:40:09.089Z,100302.78
2023-04-11T10:44:21.201Z,100320.94
2023-04-11T10:48:22.850Z,100317.66
2023-04-11T10:52:24.543Z,100311.50
2023-04-11T10:56:50.489Z,100317.91
2023-04-11T11:01:01.060Z,100331.38
2023-04-11T11:05:14.780Z,100335.22
2023-04-11T11:09:23.577Z,100335.31
2023-04-11T11:13:25.298Z,100335.78
2023-04-11T11:17:27.146Z,100359.88
2023-04-11T11:21:34.653Z,100344.28
2023-04-11T11:25:36.624Z,100349.44
2023-04-11T11:29:38.275Z,100338.94
2023-04-11T11:33:43.496Z,100349.63
2023-04-11T11:37:45.159Z,100346.41
2023-04-11T11:41:46.715Z,100347.13
2023-04-11T11:46:08.721Z,100369.53
2023-04-11T11:50:11.940Z,100363.97
2023-04-11T11:54:13.618Z,100366.28
2023-04-11T11:58:15.381Z,100365.75
2023-04-11T12:02:17.015Z,100371.88
2023-04-11T12:06:18.591Z,100382.34
2023-04-11T12:10:20.168Z,100390.75
2023-04-11T12:14:25.070Z,100387.84
2023-04-11T12:18:28.464Z,100400.28
2023-04-11T12:22:29.979Z,100387.69
2023-04-11T12:26:31.797Z,100396.09
2023-04-11T12:30:33.405Z,100405.78
2023-04-11T12:34:34.851Z,100393.63
2023-04-11T12:38:36.588Z,100392.53
2023-04-11T12:42:55.155Z,100385.03
2023-04-11T12:46:58.037Z,100410.94
2023-04-11T12:50:59.672Z,100393.47
2023-04-11T12:55:01.371Z,100399.06
2023-04-11T12:59:02.853Z,100401.56
2023-04-11T13:03:04.666Z,100401.75
2023-04-11T13:07:06.348Z,100438.09
2023-04-11T13:11:07.792Z,100463.50
2023-04-11T13:15:10.887Z,100475.56
2023-04-11T13:19:12.392Z,100503.03
2023-04-11T13:23:14.992Z,100508.56
2023-04-11T13:27:18.611Z,100549.94
2023-04-11T13:31:26.315Z,100521.88
2023-04-11T13:35:27.927Z,100527.50
2023-04-11T13:39:29.347Z,100509.28
2023-04-11T13:43:31.123Z,100528.44
2023-04-11T13:47:34.866Z,100529.00
2023-04-11T13:51:38.371Z,100541.66
2023-04-11T13:55:39.915Z,100545.47
2023-04-11T13:59:41.359Z,100565.25
2023-04-11T14:03:43.150Z,100589.84
2023-04-11T14:07:44.754Z,100612.53
2023-04-11T14:11:46.240Z,100604.72
2023-04-11T14:15:52.060Z,100605.59
2023-04-11T14:20:05.044Z,100584.25
2023-04-11T14:24:06.922Z,100583.13
2023-04-11T14:28:08.654Z,100589.03
2023-04-11T14:32:10.618Z,100585.34
2023-04-11T14:36:12.104Z,100585.94
2023-04-11T14:40:13.660Z,100570.78
2023-04-11T14:44:16.522Z,100576.19
2023-04-11T14:48:18.030Z,100574.34
2023-04-11T14:52:19.489Z,100580.16
2023-04-11T14:56:22.409Z,100568.81
2023-04-11T15:00:24.545Z,100562.81
2023-04-11T15:04:26.421Z,100572.66
2023-04-11T15:08:28.026Z,100573.13
2023-04-11T15:12:29.549Z,100567.91
2023-04-11T15:16:31.418Z,100567.28
2023-04-11T15:20:32.932Z,100561.97
2023-04-11T15:24:34.443Z,100559.75
2023-04-11T15:28:37.296Z,100564.06
2023-04-11T15:32:43.616Z,100573.28
2023-04-11T15:36:45.406Z,100561.38
2023-04-11T15:40:51.388Z,100563.06
2023-04-11T15:44:52.938Z,100561.56
2023-04-11T15:48:54.388Z,100569.47
2023-04-11T15:52:56.745Z,100573.28
2023-04-11T15:56:59.213Z,100570.00
2023-04-11T16:01:01.674Z,100569.97
2023-04-11T16:05:04.433Z,100577.19
2023-04-11T16:09:05.915Z,100593.03
2023-04-11T16:13:07.429Z,100604.28
2023-04-11T16:17:08.924Z,100598.78
2023-04-11T16:21:15.682Z,100602.88
2023-04-11T16:25:20.697Z,100605.09
2023-04-11T16:29:22.156Z,100610.13
2023-04-11T16:33:23.557Z,100585.88
2023-04-11T16:37:25.104Z,100580.97
2023-04-11T16:41:26.616Z,100589.38
2023-04-11T16:45:28.165Z,100599.22
2023-04-11T16:49:29.831Z,100595.88
2023-04-11T16:53:31.256Z,100603.53
2023-04-11T16:57:33.245Z,100602.69
2023-04-11T17:01:34.930Z,100612.25
2023-04-11T17:05:36.573Z,100611.09
2023-04-11T17:09:39.089Z,100610.63
2023-04-11T17:13:42.002Z,100621.31
2023-04-11T17:17:44.245Z,100618.16
2023-04-11T17:21:45.752Z,100624.59
2023-04-11T17:25:52.183Z,100627.78
2023-04-11T17:29:53.710Z,100630.53
2023-04-11T17:33:55.989Z,100632.91
2023-04-11T17:37:57.668Z,100630.41
2023-04-11T17:41:59.332Z,100644.81
2023-04-11T17:46:01.760Z,100646.50
2023-04-11T17:50:04.669Z,100660.50
2023-04-11T17:54:06.525Z,100659.19
2023-04-11T17:58:07.974Z,100665.13
2023-04-11T18:02:09.500Z,100673.75
2023-04-11T18:06:11.160Z,100671.97
2023-04-11T18:10:17.479Z,100685.50
2023-04-11T18:14:18.966Z,100685.78
2023-04-11T18:18:20.461Z,100689.84
2023-04-11T18:22:21.914Z,100701.56
2023-04-11T18:26:23.490Z,100697.28
2023-04-11T18:30:25.008Z,100704.44
2023-04-11T18:34:26.734Z,100698.94
2023-04-11T18:38:28.222Z,100704.00
2023-04-11T18:42:29.646Z,100711.81
2023-04-11T18:46:31.313Z,100710.88
2023-04-11T18:50:38.539Z,100720.44
2023-04-11T18:54:40.356Z,100729.03
2023-04-11T18:58:45.725Z,100739.97
2023-04-11T19:02:50.513Z,100740.91
2023-04-11T19:06:52.247Z,100729.91
2023-04-11T19:10:55.686Z,100744.97
2023-04-11T19:14:57.146Z,100736.72
2023-04-11T19:18:59.096Z,100733.38
2023-04-11T19:23:01.145Z,100734.81
2023-04-11T19:27:02.897Z,100725.16
2023-04-11T19:31:04.461Z,100724.53
2023-04-11T19:35:09.961Z,100739.25
2023-04-11T19:39:11.428Z,100734.81
2023-04-11T19:43:12.917Z,100726.28
2023-04-11T19:47:14.458Z,100732.13
2023-04-11T19:51:17.243Z,100727.09
2023-04-11T19:55:18.712Z,100731.09
2023-04-11T19:59:20.572Z,100740.78
2023-04-11T20:03:22.401Z,100737.28
2023-04-11T20:07:24.043Z,100735.56
2023-04-11T20:11:27.296Z,100733.78
2023-04-11T20:15:30.506Z,100732.81
2023-04-11T20:19:33.122Z,100742.34
2023-04-11T20:23:35.681Z,100748.03
2023-04-11T20:27:37.572Z,100747.50
2023-04-11T20:31:39.017Z,100750.09
2023-04-11T20:35:40.695Z,100747.28
2023-04-11T20:39:42.193Z,100741.47
2023-04-11T20:43:43.628Z,100748.88
2023-04-11T20:47:50.198Z,100749.44
2023-04-11T20:51:53.577Z,100758.31
2023-04-11T20:55:55.134Z,100761.69
2023-04-11T20:59:57.622Z,100763.09
2023-04-11T21:04:03.335Z,100752.81
2023-04-11T21:08:06.506Z,100751.50
2023-04-11T21:12:08.014Z,100745.22
2023-04-11T21:16:10.921Z,100745.56
2023-04-11T21:20:22.354Z,100750.75
2023-04-11T21:24:23.925Z,100750.81
2023-04-11T21:28:26.099Z,100757.69
2023-04-11T21:32:28.146Z,100754.94
2023-04-11T21:36:29.654Z,100753.59
2023-04-11T21:40:31.142Z,100755.06
2023-04-11T21:44:33.070Z,100759.28
2023-04-11T21:48:34.870Z,100769.63
2023-04-11T21:52:36.383Z,100770.28
2023-04-11T21:56:37.862Z,100775.13
2023-04-11T22:00:39.415Z,100772.53
2023-04-11T22:04:51.725Z,100779.31
2023-04-11T22:09:03.273Z,100774.13
2023-04-11T22:13:04.706Z,100763.81
2023-04-11T22:17:06.128Z,100767.19
2023-04-11T22:21:09.238Z,100772.00
2023-04-11T22:25:11.374Z,100780.78
2023-04-11T22:29:13.840Z,100778.63
2023-04-11T22:33:15.435Z,100774.06
2023-04-11T22:37:16.940Z,100770.69
2023-04-11T22:41:18.646Z,100773.31
2023-04-11T22:45:21.710Z,100773.25
2023-04-11T22:49:23.228Z,100778.03
2023-04-11T22:53:28.374Z,100778.56
2023-04-11T22:57:29.802Z,100764.44
2023-04-11T23:01:33.029Z,100763.84
2023-04-11T23:05:38.118Z,100764.09
2023-04-11T23:09:39.537Z,100754.53
2023-04-11T23:13:41.117Z,100758.41
2023-04-11T23:17:42.580Z,100752.34
2023-04-11T23:21:45.013Z,100762.06
2023-04-11T23:25:46.468Z,100749.91
2023-04-11T23:29:51.643Z,100755.78
2023-04-11T23:33:53.635Z,100748.91
2023-04-11T23:37:55.153Z,100749.53
2023-04-11T23:41:57.273Z,100744.19
2023-04-11T23:45:58.969Z,100733.06
2023-04-11T23:50:02.465Z,100727.88
2023-04-11T23:54:05.024Z,100726.13
2023-04-11T23:58:06.442Z,100723.53
